Time;durP1;ratioP1;P1;durP2;ratioP2;P2;SDS_P1;SDS_P2;PMS_P1;PMS_P2;Temp;Humidity;BMP_temperature;BMP_pressure;BME280_temperature;BME280_humidity;BME280_pressure;Samples;Min_cycle;Max_cycle;Signal;HPM_P1;HPM_P2
2022/10/06 00:01:03;;;;;;;0.82;0.82;;;;;;;13.37;100.00;101433.75;5093178;28;20206;-75
2022/10/06 00:03:30;;;;;;;0.80;0.80;;;;;;;13.28;100.00;101429.19;5093365;28;20289;-75
2022/10/06 00:06:00;;;;;;;1.00;1.00;;;;;;;13.27;100.00;101414.38;5102916;28;20755;-75
2022/10/06 00:08:29;;;;;;;0.90;0.90;;;;;;;13.18;100.00;101379.41;5107461;28;20240;-75
2022/10/06 00:10:56;;;;;;;0.80;0.80;;;;;;;13.28;100.00;101407.44;5112977;28;20254;-75
2022/10/06 00:13:24;;;;;;;1.00;1.00;;;;;;;13.22;100.00;101402.97;5113459;28;20657;-75
2022/10/06 00:15:51;;;;;;;0.90;0.90;;;;;;;13.18;100.00;101397.66;5101260;28;20212;-75
2022/10/06 00:18:18;;;;;;;0.80;0.80;;;;;;;13.09;100.00;101395.66;5099677;28;20284;-75
2022/10/06 00:20:44;;;;;;;0.85;0.85;;;;;;;13.06;100.00;101395.56;5111234;28;20216;-75
2022/10/06 00:23:12;;;;;;;0.90;0.90;;;;;;;13.01;100.00;101391.97;5110314;28;20193;-75
2022/10/06 00:25:40;;;;;;;1.10;1.10;;;;;;;13.00;100.00;101387.59;5102860;28;20729;-75
2022/10/06 00:28:06;;;;;;;0.90;0.90;;;;;;;12.83;100.00;101373.28;5113194;28;20193;-75
2022/10/06 00:30:33;;;;;;;0.85;0.85;;;;;;;12.66;100.00;101349.41;5112660;28;20202;-75
2022/10/06 00:33:03;;;;;;;0.90;0.90;;;;;;;12.84;100.00;101367.22;5112664;28;20204;-75
2022/10/06 00:35:32;;;;;;;0.88;0.88;;;;;;;12.80;100.00;101363.66;5102905;28;20226;-75
2022/10/06 00:38:00;;;;;;;1.13;1.00;;;;;;;12.76;100.00;101368.75;5094277;28;20194;-75
2022/10/06 00:40:26;;;;;;;0.90;0.90;;;;;;;12.67;100.00;101373.69;5098023;28;20198;-75
2022/10/06 00:42:57;;;;;;;0.90;0.90;;;;;;;12.72;100.00;101366.91;5108268;28;20201;-75
2022/10/06 00:45:29;;;;;;;0.85;0.85;;;;;;;12.53;100.00;101346.41;5096045;28;20236;-76
2022/10/06 00:48:01;;;;;;;0.90;0.90;;;;;;;12.14;100.00;101278.56;5099052;28;20202;-75
2022/10/06 00:50:29;;;;;;;0.80;0.80;;;;;;;12.30;100.00;101325.88;5059950;28;20225;-75
2022/10/06 00:52:56;;;;;;;0.90;0.90;;;;;;;12.40;100.00;101356.50;5092275;28;20198;-75
2022/10/06 00:55:23;;;;;;;1.08;1.00;;;;;;;12.52;100.00;101362.88;5101143;28;20205;-75
2022/10/06 00:57:52;;;;;;;0.98;0.98;;;;;;;12.29;100.00;101318.91;5111426;28;20201;-75
2022/10/06 01:00:20;;;;;;;0.90;0.90;;;;;;;12.47;100.00;101334.13;5092321;28;20194;-75
2022/10/06 01:02:52;;;;;;;1.33;1.10;;;;;;;11.97;100.00;101246.03;5091943;28;20198;-75
2022/10/06 01:05:27;;;;;;;0.90;0.90;;;;;;;12.58;100.00;101342.22;5094284;28;20218;-75
2022/10/06 01:07:54;;;;;;;0.90;0.90;;;;;;;12.43;100.00;101343.56;5091524;28;20193;-75
2022/10/06 01:10:21;;;;;;;0.98;0.93;;;;;;;12.41;100.00;101345.22;5069799;28;20202;-75
2022/10/06 01:12:48;;;;;;;0.80;0.80;;;;;;;12.31;100.00;101317.22;5091512;28;20202;-75
2022/10/06 01:15:16;;;;;;;1.20;1.10;;;;;;;12.38;100.00;101329.53;5095564;28;20205;-75
2022/10/06 01:17:49;;;;;;;0.80;0.80;;;;;;;12.36;100.00;101309.53;5091654;28;20594;-75
2022/10/06 01:20:19;;;;;;;0.82;0.82;;;;;;;12.46;100.00;101334.06;5103877;28;20623;-75
2022/10/06 01:22:50;;;;;;;1.00;1.00;;;;;;;12.47;100.00;101333.25;5109941;28;20201;-76
2022/10/06 01:25:18;;;;;;;0.80;0.80;;;;;;;12.43;100.00;101332.28;5111116;28;20249;-75
2022/10/06 01:27:52;;;;;;;0.90;0.90;;;;;;;12.43;100.00;101333.16;5110473;28;20201;-75
2022/10/06 01:30:23;;;;;;;0.88;0.88;;;;;;;12.37;100.00;101317.41;5111814;28;20289;-75
2022/10/06 01:32:50;;;;;;;1.15;1.05;;;;;;;12.35;100.00;101328.56;5109850;28;20201;-75
2022/10/06 01:35:17;;;;;;;0.90;0.90;;;;;;;12.27;100.00;101315.34;5070640;28;20205;-75
2022/10/06 01:37:43;;;;;;;0.90;0.90;;;;;;;12.34;100.00;101319.88;5091630;28;20686;-75
2022/10/06 01:40:12;;;;;;;1.13;1.00;;;;;;;12.41;100.00;101329.63;5055216;28;20670;-76
2022/10/06 01:42:39;;;;;;;0.90;0.90;;;;;;;12.29;100.00;101326.69;5087592;28;20291;-75
2022/10/06 01:45:07;;;;;;;0.90;0.90;;;;;;;12.35;100.00;101328.56;5065668;28;20206;-75
2022/10/06 01:47:34;;;;;;;0.80;0.80;;;;;;;12.30;100.00;101336.28;5100545;28;20198;-75
2022/10/06 01:50:01;;;;;;;0.80;0.80;;;;;;;12.35;100.00;101334.66;5109661;28;20221;-75
2022/10/06 01:52:27;;;;;;;0.90;0.90;;;;;;;12.15;100.00;101296.84;5106688;28;20189;-75
2022/10/06 01:54:54;;;;;;;0.88;0.88;;;;;;;12.29;100.00;101333.63;5110943;28;20193;-75
2022/10/06 01:57:22;;;;;;;1.08;1.00;;;;;;;12.40;100.00;101321.78;5111164;28;20201;-75
2022/10/06 01:59:49;;;;;;;0.90;0.90;;;;;;;12.08;100.00;101281.00;5111159;28;20201;-75
2022/10/06 02:02:16;;;;;;;0.80;0.80;;;;;;;12.30;100.00;101320.66;5097645;28;20217;-76
2022/10/06 02:04:43;;;;;;;0.90;0.90;;;;;;;12.30;100.00;101315.47;5090793;28;21514;-76
2022/10/06 02:07:09;;;;;;;0.80;0.80;;;;;;;12.32;100.00;101316.38;5098875;28;20221;-76
2022/10/06 02:09:36;;;;;;;0.90;0.90;;;;;;;12.32;100.00;101316.38;5111050;28;20197;-76
2022/10/06 02:12:03;;;;;;;0.80;0.80;;;;;;;12.34;100.00;101314.69;5097471;28;20205;-76
2022/10/06 02:14:33;;;;;;;0.70;0.70;;;;;;;12.21;100.00;101284.00;5077608;28;20208;-76
2022/10/06 02:17:00;;;;;;;0.80;0.80;;;;;;;12.34;100.00;101311.22;5111163;28;20271;-76
2022/10/06 02:19:26;;;;;;;1.15;1.05;;;;;;;12.29;100.00;101302.41;5075203;28;20205;-76
2022/10/06 02:21:53;;;;;;;1.25;1.00;;;;;;;12.34;100.00;101312.09;5110196;28;20220;-76
2022/10/06 02:24:20;;;;;;;0.90;0.90;;;;;;;12.26;100.00;101315.34;5100789;28;20197;-75
2022/10/06 02:26:47;;;;;;;0.93;0.93;;;;;;;12.05;100.00;101276.63;5100960;28;20217;-76
2022/10/06 02:29:13;;;;;;;1.00;1.00;;;;;;;12.16;100.00;101296.00;5115588;28;20205;-76
2022/10/06 02:31:42;;;;;;;0.90;0.90;;;;;;;12.31;100.00;101308.53;5096069;28;20213;-75
2022/10/06 02:34:08;;;;;;;0.93;0.93;;;;;;;12.19;100.00;101303.88;5084750;28;20197;-76
2022/10/06 02:36:35;;;;;;;0.90;0.90;;;;;;;12.22;100.00;101306.56;5071965;28;20284;-75
2022/10/06 02:39:02;;;;;;;0.85;0.85;;;;;;;12.24;100.00;101310.06;5098603;28;20201;-76
2022/10/06 02:41:29;;;;;;;0.70;0.70;;;;;;;12.25;100.00;101311.84;5094971;28;20210;-76
2022/10/06 02:43:57;;;;;;;0.90;0.90;;;;;;;11.08;100.00;101114.44;5094408;28;20625;-76
2022/10/06 02:46:24;;;;;;;0.95;0.90;;;;;;;12.06;100.00;101283.56;5094742;28;20300;-75
2022/10/06 02:48:52;;;;;;;1.17;1.00;;;;;;;12.29;100.00;101311.09;5094377;28;20202;-76
2022/10/06 02:51:21;;;;;;;0.90;0.90;;;;;;;12.23;100.00;101303.13;5088248;28;20332;-75
2022/10/06 02:53:49;;;;;;;0.80;0.80;;;;;;;12.15;100.00;101302.03;5103078;28;20674;-76
2022/10/06 02:56:17;;;;;;;0.90;0.90;;;;;;;12.13;100.00;101300.25;5110206;28;20204;-76
2022/10/06 02:58:46;;;;;;;1.00;0.90;;;;;;;12.25;100.00;101324.84;5114051;28;20202;-76
2022/10/06 03:01:15;;;;;;;0.90;0.90;;;;;;;12.05;100.00;101288.75;5079425;28;20202;-76
2022/10/06 03:03:42;;;;;;;0.75;0.75;;;;;;;12.34;100.00;101322.50;5093458;28;20513;-75
2022/10/06 03:06:21;;;;;;;0.82;0.82;;;;;;;12.55;100.00;101330.03;5090381;28;20230;-75
2022/10/06 03:08:49;;;;;;;0.80;0.80;;;;;;;12.39;100.00;101343.44;5093281;28;20240;-74
2022/10/06 03:11:18;;;;;;;1.08;0.93;;;;;;;12.31;100.00;101337.13;5097401;28;20284;-75
2022/10/06 03:13:45;;;;;;;1.73;1.10;;;;;;;12.28;100.00;101344.84;5114727;28;20237;-75
2022/10/06 03:16:16;;;;;;;1.60;1.10;;;;;;;12.29;100.00;101329.31;5098584;28;20276;-75
2022/10/06 03:18:45;;;;;;;0.88;0.88;;;;;;;12.60;100.00;101330.13;5094094;28;20206;-75
2022/10/06 03:21:14;;;;;;;0.90;0.90;;;;;;;12.64;100.00;101338.06;5109667;28;20197;-74
2022/10/06 03:23:42;;;;;;;0.95;0.90;;;;;;;12.41;100.00;101333.97;5113755;28;20229;-75
2022/10/06 03:26:08;;;;;;;1.33;1.00;;;;;;;12.37;100.00;101345.13;5103862;28;20244;-75
2022/10/06 03:28:35;;;;;;;0.88;0.88;;;;;;;12.38;100.00;101345.16;5059365;28;20202;-74
2022/10/06 03:31:03;;;;;;;0.88;0.88;;;;;;;12.38;100.00;101339.94;5089378;28;20206;-75
2022/10/06 03:33:30;;;;;;;0.90;0.90;;;;;;;12.06;100.00;101299.16;5077379;28;20198;-74
2022/10/06 03:36:01;;;;;;;1.55;1.10;;;;;;;12.36;100.00;101341.63;5103860;28;20695;-75
2022/10/06 03:38:32;;;;;;;1.17;1.08;;;;;;;12.29;100.00;101331.91;5105025;28;20209;-74
2022/10/06 03:41:06;;;;;;;0.93;0.90;;;;;;;12.15;100.00;101320.25;5104278;28;20222;-75
2022/10/06 03:43:33;;;;;;;0.80;0.80;;;;;;;12.05;100.00;101339.00;5111925;28;20603;-75
2022/10/06 03:46:01;;;;;;;1.42;1.00;;;;;;;12.09;100.00;101346.06;5065042;28;20220;-75
2022/10/06 03:48:28;;;;;;;1.00;1.00;;;;;;;12.07;100.00;101345.13;5113553;28;20217;-74
2022/10/06 03:50:56;;;;;;;0.80;0.80;;;;;;;12.13;100.00;101336.63;5104079;28;20683;-74
2022/10/06 03:53:26;;;;;;;0.98;0.90;;;;;;;12.04;100.00;101332.03;5102344;28;20205;-74
2022/10/06 03:56:01;;;;;;;1.20;0.90;;;;;;;12.11;100.00;101313.19;5113294;28;20189;-73
2022/10/06 03:58:27;;;;;;;1.70;0.90;;;;;;;12.11;100.00;101339.19;5113618;28;20609;-74
2022/10/06 04:01:02;;;;;;;0.82;0.80;;;;;;;12.39;100.00;101344.31;5112701;28;20205;-74
2022/10/06 04:03:29;;;;;;;1.33;1.00;;;;;;;12.13;100.00;101324.50;5103519;28;20212;-74
2022/10/06 04:05:57;;;;;;;0.80;0.80;;;;;;;12.27;100.00;101336.16;5096916;28;20233;-74
2022/10/06 04:08:24;;;;;;;0.80;0.80;;;;;;;12.11;100.00;101341.78;5107783;28;20197;-74
2022/10/06 04:10:51;;;;;;;0.82;0.80;;;;;;;12.03;100.00;101335.47;5104098;28;20263;-74
2022/10/06 04:13:20;;;;;;;0.80;0.80;;;;;;;12.10;100.00;101331.31;5094990;28;20251;-74
2022/10/06 04:15:48;;;;;;;1.10;1.00;;;;;;;12.00;100.00;101332.78;5105052;28;20198;-74
2022/10/06 04:18:17;;;;;;;0.88;0.88;;;;;;;11.49;100.00;101242.84;5093105;28;20194;-76
2022/10/06 04:20:44;;;;;;;1.42;1.00;;;;;;;11.89;100.00;101321.19;5092998;28;20601;-74
2022/10/06 04:23:11;;;;;;;1.52;0.90;;;;;;;11.88;100.00;101324.63;5100474;28;20668;-73
2022/10/06 04:25:38;;;;;;;0.93;0.90;;;;;;;11.88;100.00;101324.63;5103848;28;20254;-73
2022/10/06 04:28:04;;;;;;;0.95;0.93;;;;;;;11.87;100.00;101315.09;5092767;28;20229;-74
2022/10/06 04:30:32;;;;;;;1.42;0.90;;;;;;;11.96;100.00;101307.53;5092414;28;20209;-74
2022/10/06 04:32:59;;;;;;;1.38;0.90;;;;;;;11.91;100.00;101315.19;5094758;28;20206;-74
2022/10/06 04:35:26;;;;;;;1.10;0.93;;;;;;;11.95;100.00;101317.91;5109983;28;20193;-74
2022/10/06 04:37:56;;;;;;;1.55;1.10;;;;;;;12.00;100.00;101312.00;5112165;28;20685;-74
2022/10/06 04:40:22;;;;;;;1.73;1.00;;;;;;;12.05;100.00;101320.81;5110282;28;20194;-74
2022/10/06 04:42:49;;;;;;;1.90;1.10;;;;;;;12.13;100.00;101316.69;5075965;28;20194;-74
2022/10/06 04:45:16;;;;;;;1.35;0.90;;;;;;;12.22;100.00;101316.97;5091445;28;20217;-74
2022/10/06 04:47:44;;;;;;;1.27;0.80;;;;;;;12.40;100.00;101327.88;5107261;28;20226;-74
2022/10/06 04:50:11;;;;;;;0.95;0.80;;;;;;;12.36;100.00;101323.44;5094432;28;20221;-74
2022/10/06 04:52:38;;;;;;;1.40;0.95;;;;;;;12.46;100.00;101329.75;5112446;28;20197;-75
2022/10/06 04:55:06;;;;;;;1.35;0.90;;;;;;;12.60;100.00;101330.13;5110318;28;20197;-74
2022/10/06 04:57:35;;;;;;;0.80;0.80;;;;;;;12.53;100.00;101292.66;5111922;28;20194;-74
2022/10/06 05:02:47;;;;;;;1.27;0.90;;;;;;;12.85;100.00;101327.31;5092125;28;20289;-74
2022/10/06 05:05:14;;;;;;;1.30;0.95;;;;;;;12.80;100.00;101329.84;5100560;28;20189;-74
2022/10/06 05:07:43;;;;;;;0.82;0.80;;;;;;;12.98;100.00;101325.94;5099499;28;20222;-74
2022/10/06 05:10:10;;;;;;;0.85;0.80;;;;;;;12.93;100.00;101320.59;5103718;28;20212;-74
2022/10/06 05:12:37;;;;;;;2.28;1.00;;;;;;;13.05;100.00;101314.81;5061808;28;20216;-76
2022/10/06 05:15:05;;;;;;;1.17;0.90;;;;;;;12.97;100.00;101286.00;5091782;28;20211;-75
2022/10/06 05:17:34;;;;;;;0.75;0.75;;;;;;;13.32;100.00;101305.09;5094097;28;20210;-76
2022/10/06 05:20:02;;;;;;;0.93;0.85;;;;;;;13.20;100.00;101273.53;5092669;28;20201;-76
2022/10/06 05:22:29;;;;;;;1.23;0.90;;;;;;;13.28;100.00;101309.34;5074224;28;20185;-75
2022/10/06 05:24:56;;;;;;;0.70;0.70;;;;;;;13.36;100.00;101306.94;5100640;28;20194;-75
2022/10/06 05:27:23;;;;;;;1.08;0.80;;;;;;;13.41;100.00;101300.97;5092983;28;20255;-75
2022/10/06 05:29:49;;;;;;;2.38;1.00;;;;;;;13.52;100.00;101311.63;5091921;28;20198;-77
2022/10/06 05:32:16;;;;;;;1.10;0.82;;;;;;;13.53;100.00;101300.38;5081470;28;20207;-75
2022/10/06 05:34:43;;;;;;;1.92;1.00;;;;;;;13.73;100.00;101327.75;5079531;28;20217;-75
2022/10/06 05:37:11;;;;;;;2.50;1.05;;;;;;;13.88;100.00;101329.81;5092471;28;20202;-73
2022/10/06 05:39:38;;;;;;;2.72;1.00;;;;;;;13.65;100.00;101320.63;5098198;28;20224;-76
2022/10/06 05:42:04;;;;;;;2.90;2.70;;;;;;;13.57;100.00;101311.75;5058119;28;20212;-74
2022/10/06 05:44:31;;;;;;;1.33;0.90;;;;;;;13.73;100.00;101329.50;5106012;28;20205;-75
2022/10/06 05:46:58;;;;;;;1.50;1.10;;;;;;;13.88;100.00;101335.91;5085061;28;20225;-77
2022/10/06 05:49:25;;;;;;;0.80;0.80;;;;;;;13.99;100.00;101340.47;5091066;28;20195;-74
2022/10/06 05:51:52;;;;;;;0.95;0.90;;;;;;;14.05;100.00;101349.34;5071923;28;20649;-74
2022/10/06 05:54:20;;;;;;;1.10;1.10;;;;;;;14.09;100.00;101351.13;5091000;28;20245;-76
2022/10/06 05:56:47;;;;;;;1.23;0.90;;;;;;;13.94;100.00;101350.81;5090147;28;20202;-77
2022/10/06 05:59:14;;;;;;;1.42;0.90;;;;;;;13.80;100.00;101347.03;5072043;28;20206;-77
2022/10/06 06:01:43;;;;;;;1.65;1.00;;;;;;;13.88;100.00;101350.66;5085692;28;20206;-77
2022/10/06 06:04:11;;;;;;;0.80;0.80;;;;;;;13.88;100.00;101351.56;5077875;28;20205;-77
2022/10/06 06:06:39;;;;;;;0.93;0.85;;;;;;;14.08;100.00;101356.34;5091915;28;20712;-77
2022/10/06 06:09:08;;;;;;;1.08;0.85;;;;;;;13.98;100.00;101318.75;5091267;28;20242;-77
2022/10/06 06:11:38;;;;;;;1.75;1.00;;;;;;;14.21;100.00;101330.53;5091447;28;20202;-77
2022/10/06 06:14:06;;;;;;;1.17;0.90;;;;;;;14.08;100.00;101358.94;5055499;28;20662;-78
2022/10/06 06:16:34;;;;;;;0.80;0.80;;;;;;;13.94;100.00;101340.41;5091419;28;20205;-79
2022/10/06 06:19:01;;;;;;;1.58;0.95;;;;;;;14.18;100.00;101381.75;5091810;28;20194;-78
2022/10/06 06:21:28;;;;;;;1.02;0.90;;;;;;;14.12;100.00;101381.63;5091809;28;20202;-78
2022/10/06 06:23:55;;;;;;;1.08;1.00;;;;;;;14.20;100.00;101374.81;5056124;28;20202;-77
2022/10/06 06:26:24;;;;;;;1.38;0.90;;;;;;;14.05;100.00;101359.75;5091505;28;20206;-78
2022/10/06 06:28:55;;;;;;;0.98;0.80;;;;;;;14.10;100.00;101385.91;5091683;28;20229;-77
2022/10/06 06:31:25;;;;;;;1.42;1.00;;;;;;;14.28;100.00;101379.38;5091906;28;20210;-77
2022/10/06 06:33:54;;;;;;;1.35;1.00;;;;;;;14.53;100.00;101367.72;5083148;28;20241;-77
2022/10/06 06:36:23;;;;;;;0.70;0.70;;;;;;;14.69;100.00;101379.34;5088854;28;20198;-78
2022/10/06 06:38:51;;;;;;;1.45;1.10;;;;;;;14.85;100.00;101381.38;5091342;28;20217;-77
2022/10/06 06:41:20;;;;;;;0.80;0.80;;;;;;;14.99;100.00;101395.56;5055378;28;20664;-77
2022/10/06 06:43:47;;;;;;;1.08;0.80;;;;;;;15.03;100.00;101397.41;5091670;28;20202;-77
2022/10/06 06:46:17;;;;;;;18.58;10.38;;;;;;;15.00;100.00;101388.63;5091327;28;20237;-77
2022/10/06 06:48:46;;;;;;;1.02;0.80;;;;;;;14.78;100.00;101382.13;5091416;28;20882;-77
2022/10/06 06:51:13;;;;;;;0.80;0.80;;;;;;;15.01;100.00;101417.41;5091079;28;20705;-77
2022/10/06 06:53:41;;;;;;;0.80;0.80;;;;;;;15.13;100.00;101417.59;5090927;28;20204;-77
2022/10/06 06:56:09;;;;;;;0.95;0.70;;;;;;;15.30;100.00;101425.75;5091116;28;20210;-77
2022/10/06 06:58:36;;;;;;;0.80;0.80;;;;;;;15.28;100.00;101407.44;5091283;28;20202;-77
2022/10/06 07:01:12;;;;;;;1.35;0.90;;;;;;;15.48;100.00;101396.44;5090839;28;20662;-77
2022/10/06 07:03:41;;;;;;;0.75;0.75;;;;;;;15.35;100.00;101379.66;5091426;28;20206;-77
2022/10/06 07:06:09;;;;;;;0.82;0.80;;;;;;;15.56;100.00;101415.75;5092399;28;20198;-77
2022/10/06 07:08:37;;;;;;;1.10;0.80;;;;;;;15.43;100.00;101419.00;5094634;28;20229;-76
2022/10/06 07:11:15;;;;;;;1.00;0.90;;;;;;;15.55;100.00;101395.72;5094836;28;20204;-76
2022/10/06 07:13:42;;;;;;;2.05;1.00;;;;;;;15.64;100.00;101419.38;5094433;28;20573;-70
2022/10/06 07:27:10;;;;;;;0.88;0.80;;;;;;;15.96;100.00;101418.13;5093814;28;20387;-69
2022/10/06 07:29:37;;;;;;;1.20;0.88;;;;;;;15.97;100.00;101412.03;5093746;28;20214;-69
2022/10/06 07:32:04;;;;;;;0.88;0.80;;;;;;;15.89;100.00;101408.44;5074669;28;20214;-69
2022/10/06 07:34:32;;;;;;;0.70;0.70;;;;;;;16.08;100.00;101400.00;5079528;28;20202;-69
2022/10/06 07:36:58;;;;;;;0.98;0.90;;;;;;;16.23;100.00;101410.63;5093819;28;20202;-69
2022/10/06 07:39:25;;;;;;;1.85;0.90;;;;;;;16.35;100.00;101408.19;5057808;28;20637;-69
2022/10/06 07:41:52;;;;;;;0.80;0.80;;;;;;;16.47;100.00;101406.59;5093461;28;20846;-70
2022/10/06 07:44:19;;;;;;;0.80;0.80;;;;;;;16.40;100.00;101407.38;5093548;28;20708;-77
2022/10/06 07:46:45;;;;;;;1.00;0.80;;;;;;;16.56;100.00;101412.84;5093684;28;20672;-78
2022/10/06 07:49:16;;;;;;;1.00;0.90;;;;;;;16.64;100.00;101402.47;5094312;28;20690;-78
2022/10/06 07:51:44;;;;;;;0.82;0.82;;;;;;;16.91;100.00;101418.47;5093705;28;20225;-77
2022/10/06 07:54:11;;;;;;;1.10;0.85;;;;;;;17.00;100.00;101420.31;5094403;28;20206;-77
2022/10/06 07:56:37;;;;;;;1.35;0.95;;;;;;;17.28;100.00;101397.00;5093475;28;20199;-79
2022/10/06 07:59:04;;;;;;;1.83;1.00;;;;;;;17.42;100.00;101430.31;5094685;28;20202;-78
2022/10/06 08:01:31;;;;;;;0.90;0.73;;;;;;;17.44;100.00;101419.00;5074001;28;20202;-78
2022/10/06 08:03:58;;;;;;;2.90;1.05;;;;;;;17.58;97.86;101435.78;5081812;28;20201;-79
2022/10/06 08:06:25;;;;;;;0.98;0.98;;;;;;;17.56;99.21;101437.47;5094320;28;20198;-78
2022/10/06 08:08:53;;;;;;;1.40;1.10;;;;;;;17.69;95.88;101433.22;5088444;28;20284;-78
2022/10/06 08:11:21;;;;;;;1.67;1.00;;;;;;;17.67;97.38;101440.19;5086202;28;20243;-77
2022/10/06 08:13:50;;;;;;;1.30;0.90;;;;;;;17.71;96.69;101432.38;5061663;28;20221;-78
2022/10/06 08:16:19;;;;;;;1.35;0.90;;;;;;;17.53;97.81;101419.06;5094541;28;20289;-80
2022/10/06 08:18:49;;;;;;;0.80;0.80;;;;;;;17.77;97.79;101436.75;5093011;28;20202;-73
2022/10/06 08:21:18;;;;;;;2.97;1.10;;;;;;;17.86;93.45;101434.22;5074248;28;20221;-72
2022/10/06 08:23:47;;;;;;;2.65;1.02;;;;;;;17.88;92.99;101407.97;5092834;28;20205;-77
2022/10/06 08:26:17;;;;;;;1.35;1.00;;;;;;;18.03;91.65;101429.06;5056939;28;20217;-76
2022/10/06 08:28:45;;;;;;;0.93;0.80;;;;;;;18.17;90.76;101423.03;5092508;28;20240;-76
2022/10/06 08:31:14;;;;;;;1.23;0.90;;;;;;;18.17;90.65;101420.41;5092575;28;20285;-76
2022/10/06 08:33:42;;;;;;;1.65;1.00;;;;;;;18.31;90.20;101416.09;5082077;28;20235;-76
2022/10/06 08:36:13;;;;;;;0.93;0.85;;;;;;;17.77;88.40;101313.44;5053164;28;20203;-76
2022/10/06 08:38:41;;;;;;;0.80;0.80;;;;;;;18.25;89.63;101423.09;5092024;28;20201;-76
2022/10/06 08:41:20;;;;;;;1.80;1.08;;;;;;;18.45;85.65;101392.53;5092176;28;20230;-76
2022/10/06 08:43:52;;;;;;;1.73;1.00;;;;;;;18.49;83.50;101393.41;5092661;28;20193;-76
2022/10/06 08:46:22;;;;;;;1.45;1.20;;;;;;;18.54;82.50;101418.00;5092590;28;20681;-78
2022/10/06 08:48:49;;;;;;;1.40;0.90;;;;;;;18.38;82.85;101405.63;5092470;28;20221;-76
2022/10/06 08:51:30;;;;;;;2.85;1.02;;;;;;;18.54;82.18;101412.75;5092100;28;20233;-77
2022/10/06 08:54:07;;;;;;;1.00;0.80;;;;;;;18.67;82.55;101411.91;5092543;28;20198;-76
2022/10/06 08:56:47;;;;;;;2.38;1.00;;;;;;;18.72;80.68;101408.44;5092037;28;20198;-76
2022/10/06 08:59:15;;;;;;;1.55;0.90;;;;;;;18.77;79.79;101417.19;5092158;28;20598;-76
2022/10/06 09:01:46;;;;;;;1.05;0.80;;;;;;;18.98;80.08;101415.50;5072814;28;20210;-76
2022/10/06 09:04:24;;;;;;;1.23;0.90;;;;;;;19.12;78.22;101414.63;5092000;28;20234;-77
2022/10/06 09:07:02;;;;;;;1.05;0.90;;;;;;;19.16;79.35;101416.41;5092168;28;20206;-77
2022/10/06 09:09:52;;;;;;;1.80;1.00;;;;;;;19.25;77.02;101413.78;5074163;28;20221;-76
2022/10/06 09:12:28;;;;;;;0.80;0.80;;;;;;;19.40;78.61;101409.41;5074970;28;20198;-76
2022/10/06 09:15:07;;;;;;;1.27;0.90;;;;;;;19.16;79.13;101374.31;5091202;28;20206;-77
2022/10/06 09:17:39;;;;;;;1.00;0.90;;;;;;;19.16;80.02;101411.13;5081679;28;20205;-77
2022/10/06 09:20:19;;;;;;;1.05;0.90;;;;;;;18.99;80.00;101411.97;5092391;28;20206;-76
2022/10/06 09:22:48;;;;;;;1.63;1.00;;;;;;;19.11;81.03;101412.91;5092541;28;20205;-77
2022/10/06 09:25:18;;;;;;;2.35;1.00;;;;;;;19.27;79.81;101408.50;5056517;28;20209;-76
2022/10/06 09:27:53;;;;;;;1.88;1.10;;;;;;;19.22;77.71;101411.16;5056552;28;20638;-77
2022/10/06 09:30:20;;;;;;;0.80;0.80;;;;;;;19.30;75.48;101413.78;5090857;28;20213;-77
2022/10/06 09:32:49;;;;;;;0.82;0.82;;;;;;;19.45;74.54;101392.78;5088836;28;20633;-78
2022/10/06 09:35:19;;;;;;;2.50;1.02;;;;;;;19.72;70.22;101398.03;5081206;28;20206;-77
2022/10/06 09:37:54;;;;;;;1.50;0.88;;;;;;;19.78;67.92;101397.13;5092171;28;20202;-77
2022/10/06 09:40:35;;;;;;;0.95;0.85;;;;;;;19.85;64.72;101398.00;5092009;28;20233;-78
2022/10/06 09:43:07;;;;;;;0.80;0.80;;;;;;;19.85;64.27;101383.09;5092061;28;20222;-77
2022/10/06 09:45:33;;;;;;;0.80;0.80;;;;;;;19.83;62.88;101392.75;5092017;28;20673;-78
2022/10/06 09:48:12;;;;;;;0.95;0.90;;;;;;;19.90;63.94;101375.19;5091797;28;20226;-80
2022/10/06 09:50:39;;;;;;;1.02;0.80;;;;;;;19.86;59.43;101381.34;5091647;28;20320;-77
2022/10/06 09:53:12;;;;;;;1.05;0.90;;;;;;;20.13;60.42;101386.50;5092176;28;20877;-77
2022/10/06 09:55:53;;;;;;;2.90;1.65;;;;;;;19.94;57.16;101383.03;5089864;28;20227;-76
2022/10/06 09:58:31;;;;;;;1.67;1.00;;;;;;;20.12;58.96;101377.72;5091904;28;20201;-77
2022/10/06 10:01:00;;;;;;;1.33;1.00;;;;;;;20.27;62.63;101379.44;5091935;28;20198;-75
2022/10/06 10:03:42;;;;;;;0.85;0.80;;;;;;;20.43;57.73;101375.03;5090926;28;20200;-75
2022/10/06 10:06:22;;;;;;;1.35;0.90;;;;;;;20.44;58.13;101364.47;5090908;28;20206;-76
2022/10/06 10:08:48;;;;;;;1.45;0.95;;;;;;;20.39;58.20;101379.44;5090821;28;20720;-75
2022/10/06 10:14:17;;;;;;;1.58;0.90;;;;;;;20.58;57.57;101351.25;5091064;28;20217;-75
2022/10/06 10:16:44;;;;;;;1.10;1.00;;;;;;;20.72;56.98;101370.47;5090676;28;20206;-75
2022/10/06 10:19:24;;;;;;;0.85;0.75;;;;;;;20.82;56.44;101369.53;5091045;28;20577;-75
2022/10/06 10:21:55;;;;;;;1.20;0.93;;;;;;;20.91;57.00;101361.56;5090912;28;20202;-74
2022/10/06 10:24:41;;;;;;;1.85;1.00;;;;;;;21.09;55.48;101355.25;5090747;28;20289;-74
2022/10/06 10:27:13;;;;;;;1.52;1.00;;;;;;;20.72;55.43;101342.38;5090708;28;20282;-75
2022/10/06 10:29:58;;;;;;;2.17;1.10;;;;;;;21.06;54.07;101350.03;5090701;28;20226;-74
2022/10/06 10:32:40;;;;;;;0.82;0.82;;;;;;;21.29;58.41;101332.28;5091252;28;20244;-74
2022/10/06 10:35:17;;;;;;;2.63;1.20;;;;;;;21.21;54.12;101332.34;5090753;28;20317;-75
2022/10/06 10:37:50;;;;;;;1.17;0.90;;;;;;;21.21;54.36;101329.72;5090867;28;20194;-73
2022/10/06 10:40:29;;;;;;;0.82;0.80;;;;;;;21.32;54.12;101320.81;5090829;28;20209;-75
2022/10/06 10:43:13;;;;;;;1.58;0.95;;;;;;;21.47;54.23;101323.31;5094566;28;20680;-73
2022/10/06 10:45:45;;;;;;;2.88;2.28;;;;;;;21.60;53.20;101320.53;5094741;28;20658;-73
2022/10/06 10:48:18;;;;;;;1.98;1.08;;;;;;;21.64;52.54;101311.72;5094733;28;20276;-72
2022/10/06 10:50:51;;;;;;;1.00;0.90;;;;;;;21.49;52.12;101300.41;5094425;28;20234;-72
2022/10/06 10:53:23;;;;;;;2.53;1.20;;;;;;;21.30;51.91;101319.97;5058564;28;20194;-72
2022/10/06 10:55:50;;;;;;;0.80;0.80;;;;;;;21.23;52.99;101304.19;5088886;28;20234;-74
2022/10/06 10:58:22;;;;;;;1.08;0.90;;;;;;;21.48;52.29;101306.56;5076941;28;20222;-74
2022/10/06 11:00:53;;;;;;;1.67;1.02;;;;;;;;;;5085348;28;20279;-74
2022/10/06 11:03:20;;;;;;;2.65;1.85;;;;;;;21.41;51.35;101283.78;5073736;28;20199;-74
2022/10/06 11:06:13;;;;;;;2.08;1.20;;;;;;;22.00;50.36;101293.72;5073583;28;20199;-73
2022/10/06 11:08:48;;;;;;;1.75;1.08;;;;;;;22.04;50.16;101303.34;5073737;28;20226;-74
2022/10/06 11:11:22;;;;;;;1.13;1.00;;;;;;;21.95;49.63;101284.97;5074033;28;20198;-74
2022/10/06 11:13:53;;;;;;;1.48;1.00;;;;;;;21.85;49.50;101289.47;5073672;28;20636;-75
2022/10/06 11:16:35;;;;;;;2.08;1.10;;;;;;;22.09;49.34;101291.81;5073623;28;20203;-75
2022/10/06 11:19:15;;;;;;;1.00;0.95;;;;;;;22.15;48.77;101291.72;5073740;28;20236;-74
2022/10/06 11:21:48;;;;;;;1.67;1.02;;;;;;;21.79;47.97;101264.91;5074448;28;20194;-74
2022/10/06 11:24:25;;;;;;;1.08;0.90;;;;;;;21.88;48.88;101281.50;5088290;28;20673;-76
2022/10/06 11:27:20;;;;;;;2.13;1.10;;;;;;;21.71;49.46;101278.19;5093673;28;20557;-73
2022/10/06 11:29:59;;;;;;;1.92;1.00;;;;;;;21.49;49.55;101266.09;5093569;28;20233;-73
2022/10/06 11:32:39;;;;;;;2.13;1.10;;;;;;;21.54;50.48;101266.94;5093691;28;20190;-74
2022/10/06 11:35:17;;;;;;;3.10;1.10;;;;;;;21.58;50.73;101269.50;5093664;28;20244;-74
2022/10/06 11:37:49;;;;;;;3.40;1.17;;;;;;;21.60;50.11;101272.16;5091097;28;20787;-75
2022/10/06 11:40:31;;;;;;;2.38;1.02;;;;;;;21.58;50.80;101268.66;5092566;28;20208;-74
2022/10/06 11:43:06;;;;;;;1.95;1.02;;;;;;;21.54;50.36;101248.47;5092750;28;20197;-74
2022/10/06 11:45:40;;;;;;;1.02;0.90;;;;;;;21.48;49.24;101245.88;5092412;28;20197;-74
2022/10/06 11:48:33;;;;;;;1.08;0.90;;;;;;;21.41;47.47;101242.44;5092850;28;20204;-75